createdAt,value
2019-03-30T00:01:30.227Z,9.28
2019-03-30T00:03:59.131Z,8.77
2019-03-30T00:06:28.029Z,8.53
2019-03-30T00:08:56.911Z,8.45
2019-03-30T00:11:25.814Z,8.63
2019-03-30T00:13:54.694Z,9.07
2019-03-30T00:16:23.599Z,8.63
2019-03-30T00:18:52.711Z,8.43
2019-03-30T00:21:21.608Z,7.87
2019-03-30T00:23:50.591Z,8.53
2019-03-30T00:26:19.788Z,8.73
2019-03-30T00:28:48.677Z,8.50
2019-03-30T00:31:17.558Z,8.93
2019-03-30T00:33:46.463Z,8.80
2019-03-30T00:36:15.431Z,8.23
2019-03-30T00:38:44.355Z,8.93
2019-03-30T00:41:13.255Z,8.50
2019-03-30T00:43:42.155Z,9.00
2019-03-30T00:46:11.069Z,8.15
2019-03-30T00:48:39.987Z,8.15
2019-03-30T00:51:08.879Z,8.70
2019-03-30T00:53:38.115Z,9.53
2019-03-30T00:56:07.034Z,9.03
2019-03-30T00:58:36.015Z,8.57
2019-03-30T01:01:04.924Z,7.62
2019-03-30T01:03:33.823Z,8.63
2019-03-30T01:06:02.708Z,8.87
2019-03-30T01:08:31.603Z,8.77
2019-03-30T01:11:00.507Z,8.03
2019-03-30T01:13:29.424Z,8.65
2019-03-30T01:15:58.306Z,7.17
2019-03-30T01:18:27.264Z,8.90
2019-03-30T01:20:56.643Z,8.78
2019-03-30T01:23:25.532Z,8.23
2019-03-30T01:25:54.822Z,8.15
2019-03-30T01:28:23.727Z,7.72
2019-03-30T01:30:52.623Z,8.33
2019-03-30T01:33:21.542Z,7.97
2019-03-30T01:35:50.432Z,9.03
2019-03-30T01:38:19.328Z,8.57
2019-03-30T01:40:48.219Z,8.30
2019-03-30T01:43:17.460Z,7.95
2019-03-30T01:45:46.367Z,8.33
2019-03-30T01:48:15.263Z,7.77
2019-03-30T01:50:44.263Z,7.42
2019-03-30T01:53:13.235Z,7.30
2019-03-30T01:55:42.235Z,8.73
2019-03-30T01:58:11.151Z,8.33
2019-03-30T02:00:40.041Z,7.83
2019-03-30T02:03:08.952Z,7.70
2019-03-30T02:05:37.927Z,8.23
2019-03-30T02:08:06.819Z,8.60
2019-03-30T02:10:40.537Z,7.62
2019-03-30T02:13:09.527Z,8.08
2019-03-30T02:15:38.418Z,8.17
2019-03-30T02:18:07.383Z,8.30
2019-03-30T02:20:37.632Z,8.53
2019-03-30T02:23:06.611Z,8.87
2019-03-30T02:25:35.507Z,8.50
2019-03-30T02:28:06.909Z,7.67
2019-03-30T02:30:35.049Z,8.53
2019-03-30T02:33:04.339Z,9.40
2019-03-30T02:35:33.222Z,7.90
2019-03-30T02:38:02.929Z,8.50
2019-03-30T02:40:31.815Z,7.95
2019-03-30T02:43:01.273Z,7.58
2019-03-30T02:45:30.256Z,7.60
2019-03-30T02:47:59.795Z,8.15
2019-03-30T02:50:28.715Z,7.42
2019-03-30T02:52:57.661Z,7.08
2019-03-30T02:55:26.557Z,8.70
2019-03-30T02:57:55.456Z,7.80
2019-03-30T03:00:24.367Z,7.62
2019-03-30T03:02:53.419Z,11.67
2019-03-30T03:05:22.303Z,8.40
2019-03-30T03:07:51.304Z,8.33
2019-03-30T03:10:20.525Z,7.77
2019-03-30T03:12:49.448Z,8.10
2019-03-30T03:15:18.347Z,7.23
2019-03-30T03:17:47.308Z,7.40
2019-03-30T03:20:16.227Z,7.45
2019-03-30T03:22:45.110Z,7.20
2019-03-30T03:25:14.179Z,6.80
2019-03-30T03:27:43.172Z,6.60
2019-03-30T03:30:12.354Z,7.20
2019-03-30T03:32:41.256Z,6.67
2019-03-30T03:35:10.170Z,6.80
2019-03-30T03:37:45.752Z,7.27
2019-03-30T03:40:09.787Z,8.23
2019-03-30T03:42:38.703Z,7.37
2019-03-30T03:45:08.907Z,7.42
2019-03-30T03:47:37.916Z,7.47
2019-03-30T03:50:06.948Z,6.37
2019-03-30T03:52:36.054Z,7.27
2019-03-30T03:55:06.864Z,7.87
2019-03-30T03:57:37.962Z,7.90
2019-03-30T04:00:07.624Z,7.45
2019-03-30T04:02:36.817Z,6.47
2019-03-30T04:05:06.607Z,6.83
2019-03-30T04:07:36.967Z,7.12
2019-03-30T04:10:05.859Z,6.35
2019-03-30T04:12:36.240Z,7.05
2019-03-30T04:15:05.655Z,6.57
2019-03-30T04:17:34.795Z,7.22
2019-03-30T04:20:04.220Z,6.90
2019-03-30T04:22:33.116Z,7.07
2019-03-30T04:25:02.578Z,6.40
2019-03-30T04:27:31.467Z,7.57
2019-03-30T04:30:00.455Z,6.33
2019-03-30T04:32:29.563Z,6.25
2019-03-30T04:34:59.087Z,6.85
2019-03-30T04:37:28.110Z,7.27
2019-03-30T04:39:57.079Z,6.73
2019-03-30T04:42:25.962Z,7.43
2019-03-30T04:44:55.068Z,7.03
2019-03-30T04:47:23.956Z,6.63
2019-03-30T04:49:53.019Z,6.28
2019-03-30T04:52:22.880Z,7.25
2019-03-30T04:54:51.763Z,7.00
2019-03-30T04:57:20.662Z,6.60
2019-03-30T04:59:49.579Z,6.63
2019-03-30T05:02:18.515Z,6.10
2019-03-30T05:04:47.415Z,6.78
2019-03-30T05:07:16.308Z,7.47
2019-03-30T05:09:45.207Z,6.58
2019-03-30T05:12:14.111Z,6.57
2019-03-30T05:14:43.576Z,6.70
2019-03-30T05:17:12.458Z,6.73
2019-03-30T05:19:41.372Z,7.07
2019-03-30T05:22:12.775Z,6.97
2019-03-30T05:24:40.915Z,7.08
2019-03-30T05:27:09.795Z,6.93
2019-03-30T05:29:38.691Z,6.10
2019-03-30T05:32:07.589Z,6.53
2019-03-30T05:34:36.499Z,6.90
2019-03-30T05:37:05.388Z,6.97
2019-03-30T05:39:34.272Z,6.87
2019-03-30T05:42:04.276Z,6.70
2019-03-30T05:44:33.362Z,6.40
2019-03-30T05:47:02.267Z,6.67
2019-03-30T05:49:31.168Z,6.40
2019-03-30T05:52:00.726Z,6.20
2019-03-30T05:54:29.615Z,6.22
2019-03-30T05:56:58.514Z,6.17
2019-03-30T05:59:28.431Z,6.67
2019-03-30T06:01:57.320Z,6.45
2019-03-30T06:04:26.240Z,6.50
2019-03-30T06:06:55.164Z,6.73
2019-03-30T06:09:24.048Z,6.90
2019-03-30T06:11:52.950Z,6.25
2019-03-30T06:14:21.847Z,6.47
2019-03-30T06:16:50.731Z,5.70
2019-03-30T06:19:19.639Z,6.42
2019-03-30T06:21:48.528Z,6.40
2019-03-30T06:24:17.441Z,6.63
2019-03-30T06:26:46.363Z,6.25
2019-03-30T06:29:15.242Z,6.70
2019-03-30T06:31:46.874Z,6.20
2019-03-30T06:34:14.659Z,6.53
2019-03-30T06:36:44.639Z,6.47
2019-03-30T06:39:13.524Z,6.27
2019-03-30T06:41:42.411Z,6.83
2019-03-30T06:44:11.750Z,6.67
2019-03-30T06:46:40.635Z,6.78
2019-03-30T06:49:09.523Z,7.23
2019-03-30T06:51:38.422Z,6.70
2019-03-30T06:54:07.328Z,7.40
2019-03-30T06:56:36.227Z,7.13
2019-03-30T06:59:05.130Z,6.60
2019-03-30T07:01:35.498Z,6.87
2019-03-30T07:04:04.402Z,7.37
2019-03-30T07:06:33.499Z,6.67
2019-03-30T07:09:04.404Z,6.57
2019-03-30T07:11:37.184Z,6.40
2019-03-30T07:14:06.107Z,6.97
2019-03-30T07:16:36.355Z,5.92
2019-03-30T07:19:05.271Z,6.72
2019-03-30T07:21:34.168Z,7.15
2019-03-30T07:24:03.070Z,5.97
2019-03-30T07:26:32.187Z,5.80
2019-03-30T07:29:01.092Z,6.10
2019-03-30T07:31:30.406Z,5.73
2019-03-30T07:33:59.321Z,5.50
2019-03-30T07:36:28.258Z,5.93
2019-03-30T07:38:57.163Z,6.17
2019-03-30T07:41:26.166Z,7.25
2019-03-30T07:43:55.060Z,5.95
2019-03-30T07:46:23.948Z,7.17
2019-03-30T07:48:52.947Z,7.53
2019-03-30T07:51:21.864Z,5.83
2019-03-30T07:53:51.867Z,7.97
2019-03-30T07:56:20.795Z,7.33
2019-03-30T07:58:49.707Z,6.97
2019-03-30T08:01:19.350Z,7.15
2019-03-30T08:03:48.274Z,7.58
2019-03-30T08:06:17.155Z,7.70
2019-03-30T08:08:46.048Z,7.35
2019-03-30T08:11:14.951Z,3.17
2019-03-30T08:13:43.835Z,7.05
2019-03-30T08:16:12.739Z,7.57
2019-03-30T08:18:41.647Z,6.00
2019-03-30T08:21:11.340Z,7.17
2019-03-30T08:23:40.893Z,5.10
2019-03-30T08:26:09.796Z,6.53
2019-03-30T08:28:38.699Z,8.38
2019-03-30T08:31:07.595Z,6.83
2019-03-30T08:33:36.512Z,6.90
2019-03-30T08:36:05.403Z,7.08
2019-03-30T08:38:34.291Z,7.90
2019-03-30T08:41:03.755Z,8.15
2019-03-30T08:43:32.634Z,7.53
2019-03-30T08:46:01.710Z,2.97
2019-03-30T08:48:31.104Z,3.30
2019-03-30T08:50:59.991Z,3.23
2019-03-30T08:53:28.979Z,3.60
2019-03-30T08:55:57.967Z,3.77
2019-03-30T08:58:26.864Z,4.37
2019-03-30T09:00:55.755Z,3.98
2019-03-30T09:03:24.639Z,3.90
2019-03-30T09:05:53.555Z,3.60
2019-03-30T09:08:22.454Z,4.28
2019-03-30T09:10:51.350Z,4.40
2019-03-30T09:13:20.309Z,4.03
2019-03-30T09:15:49.160Z,4.25
2019-03-30T09:18:18.055Z,4.47
2019-03-30T09:20:46.971Z,5.30
2019-03-30T09:23:15.875Z,5.20
2019-03-30T09:25:44.746Z,4.78
2019-03-30T09:28:14.062Z,5.15
2019-03-30T09:30:42.888Z,4.78
2019-03-30T09:33:11.805Z,4.93
2019-03-30T09:35:40.686Z,4.77
2019-03-30T09:38:09.572Z,5.20
2019-03-30T09:40:38.476Z,5.35
2019-03-30T09:43:07.512Z,4.97
2019-03-30T09:45:36.409Z,5.03
2019-03-30T09:48:05.393Z,4.73
2019-03-30T09:50:34.310Z,5.83
2019-03-30T09:53:03.210Z,4.87
2019-03-30T09:55:32.120Z,6.03
2019-03-30T09:58:01.079Z,5.40
2019-03-30T10:00:31.067Z,4.90
2019-03-30T10:03:00.034Z,5.27
2019-03-30T10:05:29.991Z,5.40
2019-03-30T10:07:58.973Z,5.20
2019-03-30T10:10:28.071Z,5.97
2019-03-30T10:12:56.987Z,4.92
2019-03-30T10:15:25.878Z,5.00
2019-03-30T10:17:54.855Z,5.40
2019-03-30T10:20:23.766Z,5.50
2019-03-30T10:22:52.664Z,5.60
2019-03-30T10:25:21.553Z,4.60
2019-03-30T10:27:50.467Z,5.33
2019-03-30T10:30:19.364Z,4.80
2019-03-30T10:32:48.254Z,5.40
2019-03-30T10:35:17.224Z,5.10
2019-03-30T10:37:46.127Z,5.53
2019-03-30T10:40:15.088Z,4.90
2019-03-30T10:42:43.976Z,5.90
2019-03-30T10:45:12.888Z,6.05
2019-03-30T10:47:41.791Z,9.20
2019-03-30T10:50:10.889Z,7.45
2019-03-30T10:52:39.807Z,4.37
2019-03-30T10:55:08.755Z,4.83
2019-03-30T10:57:37.707Z,4.83
2019-03-30T11:00:08.568Z,7.93
2019-03-30T11:02:37.694Z,6.80
2019-03-30T11:05:06.822Z,4.97
2019-03-30T11:07:36.694Z,8.10
2019-03-30T11:10:06.006Z,6.30
2019-03-30T11:12:34.886Z,4.10
2019-03-30T11:15:04.156Z,2.43
2019-03-30T11:17:33.059Z,7.80
2019-03-30T11:20:01.976Z,7.50
2019-03-30T11:22:30.865Z,8.98
2019-03-30T11:25:07.407Z,10.13
2019-03-30T11:27:31.394Z,9.50
2019-03-30T11:30:00.366Z,9.95
2019-03-30T11:32:29.396Z,10.65
2019-03-30T11:34:58.448Z,8.08
2019-03-30T11:37:27.323Z,5.17
2019-03-30T11:39:56.218Z,9.80
2019-03-30T11:42:25.116Z,9.37
2019-03-30T11:44:54.431Z,4.45
2019-03-30T11:47:23.336Z,9.83
2019-03-30T11:49:52.247Z,6.85
2019-03-30T11:52:21.157Z,10.98
2019-03-30T11:54:50.067Z,9.48
2019-03-30T11:57:18.963Z,1.82
2019-03-30T11:59:47.859Z,9.83
2019-03-30T12:02:27.358Z,11.93
2019-03-30T12:04:47.271Z,10.23
2019-03-30T12:07:16.180Z,7.15
2019-03-30T12:09:45.080Z,4.87
2019-03-30T12:12:14.023Z,4.12
2019-03-30T12:14:42.918Z,10.90
2019-03-30T12:17:11.816Z,9.05
2019-03-30T12:19:40.831Z,4.53
2019-03-30T12:22:09.727Z,5.50
2019-03-30T12:24:38.644Z,3.87
2019-03-30T12:27:07.545Z,8.05
2019-03-30T12:29:36.447Z,9.50
2019-03-30T12:32:05.349Z,8.20
2019-03-30T12:34:34.243Z,9.77
2019-03-30T12:37:03.223Z,10.50
2019-03-30T12:39:32.497Z,9.03
2019-03-30T12:42:01.392Z,3.87
2019-03-30T12:44:30.290Z,10.10
2019-03-30T12:46:59.240Z,9.20
2019-03-30T12:49:28.150Z,7.75
2019-03-30T12:51:57.111Z,8.93
2019-03-30T12:54:26.043Z,3.27
2019-03-30T12:56:55.993Z,9.13
2019-03-30T12:59:24.887Z,5.23
2019-03-30T13:01:53.799Z,6.07
2019-03-30T13:04:22.707Z,2.72
2019-03-30T13:06:51.669Z,1.70
2019-03-30T13:09:20.576Z,7.30
2019-03-30T13:11:49.477Z,8.50
2019-03-30T13:14:18.599Z,9.25
2019-03-30T13:16:47.486Z,3.77
2019-03-30T13:19:16.408Z,5.70
2019-03-30T13:21:52.503Z,7.83
2019-03-30T13:24:15.843Z,6.55
2019-03-30T13:26:44.767Z,8.30
2019-03-30T13:29:13.704Z,7.10
2019-03-30T13:31:42.579Z,6.13
2019-03-30T13:34:11.463Z,8.20
2019-03-30T13:36:42.499Z,6.92
2019-03-30T13:39:11.375Z,6.87
2019-03-30T13:41:40.275Z,5.43
2019-03-30T13:44:09.265Z,8.10
2019-03-30T13:46:38.155Z,6.50
2019-03-30T13:49:07.071Z,9.73
2019-03-30T13:51:35.975Z,7.37
2019-03-30T13:54:04.883Z,6.75
2019-03-30T13:56:33.783Z,6.25
2019-03-30T13:59:02.662Z,3.60
2019-03-30T14:01:31.579Z,7.00
2019-03-30T14:04:00.479Z,8.07
2019-03-30T14:06:29.360Z,2.25
2019-03-30T14:08:58.271Z,7.62
2019-03-30T14:11:27.225Z,6.23
2019-03-30T14:13:56.122Z,2.17
2019-03-30T14:16:25.010Z,2.37
2019-03-30T14:18:53.899Z,7.42
2019-03-30T14:21:22.783Z,6.70
2019-03-30T14:23:51.703Z,6.57
2019-03-30T14:26:30.842Z,4.30
2019-03-30T14:28:51.279Z,3.47
2019-03-30T14:31:20.158Z,3.60
2019-03-30T14:33:49.062Z,1.42
2019-03-30T14:36:17.975Z,7.40
2019-03-30T14:38:46.863Z,7.67
2019-03-30T14:41:15.755Z,7.08
2019-03-30T14:43:44.751Z,7.45
2019-03-30T14:46:13.644Z,7.55
2019-03-30T14:48:42.543Z,2.47
2019-03-30T14:51:11.443Z,7.30
2019-03-30T14:53:40.367Z,5.03
2019-03-30T14:56:09.339Z,8.13
2019-03-30T14:58:38.255Z,8.50
2019-03-30T15:01:07.228Z,8.88
2019-03-30T15:03:36.126Z,5.03
2019-03-30T15:06:07.079Z,3.98
2019-03-30T15:08:35.591Z,9.77
2019-03-30T15:11:04.523Z,7.08
2019-03-30T15:13:33.435Z,4.20
2019-03-30T15:16:02.326Z,10.70
2019-03-30T15:18:31.206Z,9.57
2019-03-30T15:21:00.197Z,6.70
2019-03-30T15:23:29.109Z,8.53
2019-03-30T15:25:58.227Z,8.20
2019-03-30T15:28:27.107Z,7.17
2019-03-30T15:30:56.011Z,5.47
2019-03-30T15:33:24.914Z,10.35
2019-03-30T15:35:53.951Z,11.20
2019-03-30T15:38:23.812Z,9.68
2019-03-30T15:40:55.547Z,11.83
2019-03-30T15:43:37.132Z,11.35
2019-03-30T15:45:53.767Z,6.70
2019-03-30T15:48:23.038Z,4.63
2019-03-30T15:50:51.927Z,3.70
2019-03-30T15:53:20.870Z,10.70
2019-03-30T15:55:49.750Z,4.23
2019-03-30T15:58:18.706Z,7.87
2019-03-30T16:00:47.626Z,5.72
2019-03-30T16:03:16.564Z,11.80
2019-03-30T16:05:45.443Z,7.33
2019-03-30T16:08:14.355Z,11.40
2019-03-30T16:10:43.267Z,12.88
2019-03-30T16:13:14.648Z,12.98
2019-03-30T16:15:44.717Z,12.73
2019-03-30T16:18:13.814Z,12.97
2019-03-30T16:20:42.703Z,9.05
2019-03-30T16:23:11.655Z,10.60
2019-03-30T16:25:40.575Z,10.98
2019-03-30T16:28:09.563Z,12.33
2019-03-30T16:30:38.686Z,12.10
2019-03-30T16:33:07.579Z,11.57
2019-03-30T16:35:36.476Z,12.37
2019-03-30T16:38:05.523Z,8.57
2019-03-30T16:40:35.198Z,14.40
2019-03-30T16:43:04.140Z,11.85
2019-03-30T16:45:33.298Z,12.30
2019-03-30T16:48:02.242Z,11.22
2019-03-30T16:50:31.178Z,13.53
2019-03-30T16:53:00.143Z,14.27
2019-03-30T16:55:29.054Z,13.53
2019-03-30T16:57:59.043Z,12.10
2019-03-30T17:00:31.156Z,15.00
2019-03-30T17:03:00.071Z,12.77
2019-03-30T17:05:29.003Z,13.23
2019-03-30T17:07:57.903Z,13.62
2019-03-30T17:10:26.823Z,12.70
2019-03-30T17:12:55.716Z,13.90
2019-03-30T17:15:24.642Z,13.73
2019-03-30T17:17:53.574Z,13.60
2019-03-30T17:20:22.947Z,14.67
2019-03-30T17:22:51.911Z,12.37
2019-03-30T17:25:20.874Z,13.40
2019-03-30T17:27:58.099Z,12.47
2019-03-30T17:30:20.306Z,14.37
2019-03-30T17:32:49.279Z,12.83
2019-03-30T17:35:18.181Z,13.75
2019-03-30T17:37:47.109Z,13.17
2019-03-30T17:40:16.019Z,14.17
2019-03-30T17:42:44.915Z,15.23
2019-03-30T17:45:13.933Z,13.43
2019-03-30T17:47:42.829Z,14.00
2019-03-30T17:50:11.759Z,13.37
2019-03-30T17:52:40.719Z,14.80
2019-03-30T17:55:09.749Z,14.30
2019-03-30T17:57:38.659Z,13.77
2019-03-30T18:00:08.757Z,13.18
2019-03-30T18:02:37.664Z,14.63
2019-03-30T18:05:06.595Z,13.77
2019-03-30T18:07:35.511Z,13.27
2019-03-30T18:10:04.959Z,13.78
2019-03-30T18:12:33.916Z,13.38
2019-03-30T18:15:02.888Z,13.90
2019-03-30T18:17:31.875Z,12.53
2019-03-30T18:20:00.783Z,11.85
2019-03-30T18:22:29.690Z,12.47
2019-03-30T18:24:58.584Z,13.65
2019-03-30T18:27:27.602Z,13.07
2019-03-30T18:29:56.503Z,13.57
2019-03-30T18:32:25.603Z,13.78
2019-03-30T18:34:55.527Z,13.90
2019-03-30T18:37:24.551Z,14.40
2019-03-30T18:39:53.446Z,14.45
2019-03-30T18:42:22.371Z,14.27
2019-03-30T18:44:53.078Z,15.23
2019-03-30T18:47:22.031Z,16.30
2019-03-30T18:49:50.931Z,16.87
2019-03-30T18:52:19.951Z,17.25
2019-03-30T18:54:49.775Z,17.00
2019-03-30T18:57:18.678Z,17.90
2019-03-30T18:59:47.763Z,17.73
2019-03-30T19:02:19.104Z,19.93
2019-03-30T19:04:47.163Z,21.33
2019-03-30T19:07:16.089Z,29.33
2019-03-30T19:09:44.987Z,20.23
2019-03-30T19:12:13.895Z,20.17
2019-03-30T19:14:42.880Z,18.53
2019-03-30T19:17:11.771Z,17.10
2019-03-30T19:19:40.667Z,18.27
2019-03-30T19:22:09.595Z,18.92
2019-03-30T19:24:38.598Z,19.60
2019-03-30T19:27:07.462Z,19.93
2019-03-30T19:29:36.368Z,21.00
2019-03-30T19:32:05.815Z,22.37
2019-03-30T19:34:34.743Z,23.13
2019-03-30T19:37:03.655Z,21.62
2019-03-30T19:39:32.588Z,23.55
2019-03-30T19:42:01.492Z,23.42
2019-03-30T19:44:30.394Z,24.95
2019-03-30T19:46:59.314Z,26.50
2019-03-30T19:49:28.239Z,23.37
2019-03-30T19:51:57.471Z,23.65
2019-03-30T19:54:26.378Z,23.40
2019-03-30T19:56:55.289Z,20.52
2019-03-30T19:59:24.216Z,22.63
2019-03-30T20:01:53.135Z,22.55
2019-03-30T20:04:22.051Z,22.27
2019-03-30T20:06:50.959Z,21.93
2019-03-30T20:09:20.989Z,21.87
2019-03-30T20:11:50.760Z,23.35
2019-03-30T20:14:19.663Z,23.07
2019-03-30T20:16:48.568Z,21.97
2019-03-30T20:19:17.535Z,21.77
2019-03-30T20:21:46.433Z,25.17
2019-03-30T20:24:15.354Z,26.12
2019-03-30T20:26:44.631Z,22.10
2019-03-30T20:29:24.755Z,22.20
2019-03-30T20:31:44.052Z,20.50
2019-03-30T20:34:13.734Z,22.37
2019-03-30T20:36:43.718Z,19.95
2019-03-30T20:39:12.785Z,21.70
2019-03-30T20:41:41.751Z,19.57
2019-03-30T20:44:10.758Z,20.08
2019-03-30T20:46:39.655Z,20.40
2019-03-30T20:49:08.579Z,20.23
2019-03-30T20:51:38.459Z,20.00
2019-03-30T20:54:07.387Z,18.05
2019-03-30T20:56:36.310Z,18.20
2019-03-30T20:59:05.239Z,18.40
2019-03-30T21:01:34.159Z,21.33
2019-03-30T21:04:03.118Z,19.47
2019-03-30T21:06:32.023Z,21.95
2019-03-30T21:09:00.904Z,21.47
2019-03-30T21:11:31.615Z,23.02
2019-03-30T21:14:00.506Z,21.77
2019-03-30T21:16:29.415Z,19.63
2019-03-30T21:18:58.763Z,23.05
2019-03-30T21:21:27.675Z,20.72
2019-03-30T21:23:56.740Z,22.60
2019-03-30T21:26:28.504Z,21.80
2019-03-30T21:28:56.252Z,24.17
2019-03-30T21:31:25.911Z,24.00
2019-03-30T21:33:54.802Z,22.13
2019-03-30T21:36:24.327Z,25.15
2019-03-30T21:38:53.251Z,24.13
2019-03-30T21:41:22.246Z,22.87
2019-03-30T21:43:51.469Z,23.42
2019-03-30T21:46:21.367Z,23.53
2019-03-30T21:48:50.263Z,25.83
2019-03-30T21:51:19.159Z,24.30
2019-03-30T21:53:48.234Z,24.60
2019-03-30T21:56:17.195Z,24.70
2019-03-30T21:58:46.103Z,24.10
2019-03-30T22:01:15.356Z,23.27
2019-03-30T22:03:44.260Z,26.20
2019-03-30T22:06:13.182Z,22.90
2019-03-30T22:08:43.150Z,25.87
2019-03-30T22:11:12.054Z,25.68
2019-03-30T22:13:40.947Z,27.05
2019-03-30T22:16:09.844Z,27.47
2019-03-30T22:18:38.755Z,25.67
2019-03-30T22:21:07.651Z,24.37
2019-03-30T22:23:36.560Z,24.27
2019-03-30T22:26:05.643Z,25.02
2019-03-30T22:28:34.535Z,25.75
2019-03-30T22:31:03.513Z,25.43
2019-03-30T22:33:32.463Z,26.77
2019-03-30T22:36:01.351Z,24.43
2019-03-30T22:38:30.239Z,26.03
2019-03-30T22:40:59.330Z,26.35
2019-03-30T22:43:29.286Z,25.30
2019-03-30T22:45:58.175Z,28.17
2019-03-30T22:48:27.079Z,25.93
2019-03-30T22:50:55.988Z,26.33
2019-03-30T22:53:24.893Z,24.60
2019-03-30T22:55:54.517Z,26.33
2019-03-30T22:58:23.402Z,25.30
2019-03-30T23:01:05.683Z,26.80
2019-03-30T23:03:34.768Z,25.17
2019-03-30T23:06:03.673Z,25.93
2019-03-30T23:08:32.552Z,27.03
2019-03-30T23:11:01.471Z,25.95
2019-03-30T23:13:30.391Z,26.93
2019-03-30T23:15:59.480Z,29.13
2019-03-30T23:18:28.384Z,27.05
2019-03-30T23:20:57.294Z,24.80
2019-03-30T23:23:26.647Z,25.68
2019-03-30T23:25:56.518Z,23.53
2019-03-30T23:28:25.475Z,26.12
2019-03-30T23:30:54.892Z,26.30
2019-03-30T23:33:23.931Z,25.73
2019-03-30T23:35:53.138Z,27.17
2019-03-30T23:38:22.103Z,27.80
2019-03-30T23:40:51.019Z,25.30
2019-03-30T23:43:19.903Z,27.70
2019-03-30T23:45:48.863Z,25.60
2019-03-30T23:48:17.771Z,25.63
2019-03-30T23:50:46.650Z,27.63
2019-03-30T23:53:15.571Z,25.30
2019-03-30T23:55:44.474Z,28.57
2019-03-30T23:58:13.359Z,27.33
